M/V Yankee Clipper — WDC3923 — position and weather

sailwx.info

Track history (hours):
 
Tides and Currents Weather Stations Pressure Air Temp Water Temp Dewpoint Dewpoint Depression Visibility Wind Speed Wind Dir Waves Ship Positions

M/V Yankee Clipper

More information available from US FCC via Universal Licensing System and Coast Guard Vessel Documentation Center.

Last reported at 2014-Mar-15 05:33 UTC. Time now 2014-Aug-22 15:43 UTC.
Position N 54°40' W 130°47'.
Warning: this ship's position is months out of date.

Length 27 m; draft 4 m.

Type: Fishing. MMSI: 367016340.

Date/timePositionNaut miles runAvg speedWind from/ knotsBaromVisibWave heightAir tempDewpointWater temp
2014-Mar-15 05:33N 54°40' W 130°47'9 8.6
2014-Mar-15 04:33N 54°32' W 130°42'9 8.7
2014-Mar-15 03:34N 54°23' W 130°38'10 9.6
2014-Mar-15 02:34N 54°15' W 130°31'192 8.0
2014-Mar-14 02:30N 51°29' W 127°51'9 9.5
2014-Mar-14 01:32N 51°19' W 127°52'9 9.4
2014-Mar-14 00:33N 51°10' W 127°50'10 9.9
2014-Mar-13 23:33N 51°03' W 127°39'10 9.8
2014-Mar-13 22:33N 50°56' W 127°28'10 9.9
2014-Mar-13 21:33N 50°51' W 127°15'9 9.4
2014-Mar-13 20:33N 50°46' W 127°02'10 9.1
2014-Mar-13 19:29N 50°40' W 126°50'8 8.7
2014-Mar-13 18:33N 50°34' W 126°41'59 9.1
2014-Mar-13 12:06N 50°07' W 125°20'12 7.6
2014-Mar-13 10:33N 49°57' W 125°09'8 8.1
2014-Mar-13 09:33N 49°52' W 125°01'9 8.4
2014-Mar-13 08:31N 49°45' W 124°51'8 8.4
2014-Mar-13 07:33N 49°40' W 124°42'8 8.5
2014-Mar-13 06:34N 49°34' W 124°33'8 8.4
2014-Mar-13 05:33N 49°28' W 124°23'8 8.3
2014-Mar-13 04:34N 49°24' W 124°12'8 7.9
2014-Mar-13 03:33N 49°20' W 124°02'8 7.8
2014-Mar-13 02:34N 49°16' W 123°51'7 7.3
2014-Mar-13 01:32N 49°12' W 123°42'7 7.4
2014-Mar-13 00:33N 49°07' W 123°33'8 7.7
2014-Mar-12 23:33N 49°02' W 123°25'8 8.3
2014-Mar-12 22:34N 48°56' W 123°16'8 8.1
2014-Mar-12 21:34N 48°51' W 123°06'8 8.2
2014-Mar-12 20:33N 48°49' W 122°54'9 8.7
2014-Mar-12 19:34N 48°43' W 122°44'8 8.2
2014-Mar-12 18:33N 48°35' W 122°45'8 8.3
2014-Mar-12 17:32N 48°26' W 122°44'9 8.6
2014-Mar-12 16:31N 48°18' W 122°47'10 8.7
2014-Mar-12 15:25N 48°09' W 122°42'910.2
2014-Mar-12 14:30N 48°00' W 122°36'9 9.7
2014-Mar-12 13:34N 47°53' W 122°28'9 8.5
2014-Mar-12 12:34N 47°44' W 122°26'5 4.6
2014-Mar-12 11:33N 47°40' W 122°24'1 0.7
2014-Mar-12 10:33N 47°40' W 122°23'0 0.0
2014-Mar-12 09:34N 47°40' W 122°23'0 0.0
2014-Mar-12 08:34N 47°40' W 122°23'0 0.0
2014-Mar-12 07:33N 47°40' W 122°23'0 0.0
2014-Mar-12 06:33N 47°40' W 122°23'0 0.0
2014-Mar-12 05:33N 47°40' W 122°23'0 0.0
2014-Mar-12 04:33N 47°40' W 122°23'0 0.0
2014-Mar-12 03:34N 47°40' W 122°23'0 0.0
2014-Mar-12 02:33N 47°40' W 122°23'0 0.0
2014-Mar-12 01:34N 47°40' W 122°23'0 0.0
2014-Mar-12 00:33N 47°40' W 122°23'0 0.0
2014-Mar-11 23:34N 47°40' W 122°23'0 0.0
2014-Mar-11 22:33N 47°40' W 122°23'0 0.0
2014-Mar-11 21:33N 47°40' W 122°23'0 0.0
2014-Mar-11 20:34N 47°40' W 122°23'0 0.0
2014-Mar-11 19:33N 47°40' W 122°23'0 0.0
2014-Mar-11 18:34N 47°40' W 122°23'0 0.0
2014-Mar-11 17:34N 47°40' W 122°23'0 0.0
2014-Mar-11 16:34N 47°40' W 122°23'0 0.0
2014-Mar-11 15:34N 47°40' W 122°23'0 0.0
2014-Mar-11 14:34N 47°40' W 122°23'0 0.0
2014-Mar-11 13:34N 47°40' W 122°23'0 0.0
2014-Mar-11 12:34N 47°40' W 122°23'0 0.0
2014-Mar-11 11:34N 47°40' W 122°23'0 0.0
2014-Mar-11 10:34N 47°40' W 122°23'0 0.0
2014-Mar-11 09:33N 47°40' W 122°23'0 0.0
2014-Mar-11 08:34N 47°40' W 122°23'0 0.0
2014-Mar-11 07:34N 47°40' W 122°23'0 0.0
2014-Mar-11 06:34N 47°40' W 122°23'0 0.0
2014-Mar-11 05:34N 47°40' W 122°23'0 0.0
2014-Mar-11 04:34N 47°40' W 122°23'0 0.0
2014-Mar-11 03:34N 47°40' W 122°23'0 0.0
2014-Mar-11 02:34N 47°40' W 122°23'0 0.0
2014-Mar-11 01:34N 47°40' W 122°23'0 0.0
2014-Mar-11 00:33N 47°40' W 122°23'0 0.0
2014-Mar-10 23:34N 47°40' W 122°23'0 0.0
2014-Mar-10 22:33N 47°40' W 122°23'0 0.0
2014-Mar-10 21:34N 47°40' W 122°23'0 0.0
2014-Mar-10 20:34N 47°40' W 122°23'0 0.0
2014-Mar-10 19:34N 47°40' W 122°23'0 0.0
2014-Mar-10 18:34N 47°40' W 122°23'0 0.0
2014-Mar-10 17:33N 47°40' W 122°23'1 0.6
2014-Mar-10 16:34N 47°40' W 122°23'  
Track history (hours):
 
Tides and Currents Weather Stations Pressure Air Temp Water Temp Dewpoint Dewpoint Depression Visibility Wind Speed Wind Dir Waves Ship Positions

M/V Yankee Clipper

More information available from US FCC via Universal Licensing System and Coast Guard Vessel Documentation Center.

Last reported at 2014-Mar-15 05:33 UTC. Time now 2014-Aug-22 15:43 UTC.
Position N 54°40' W 130°47'.
Warning: this ship's position is months out of date.

Length 27 m; draft 4 m.

Type: Fishing. MMSI: 367016340.

Date/timePositionNaut miles runAvg speedWind from/ knotsBaromVisibWave heightAir tempDewpointWater temp
2014-Mar-15 05:33N 54°40' W 130°47'9 8.6
2014-Mar-15 04:33N 54°32' W 130°42'9 8.7
2014-Mar-15 03:34N 54°23' W 130°38'10 9.6
2014-Mar-15 02:34N 54°15' W 130°31'192 8.0
2014-Mar-14 02:30N 51°29' W 127°51'9 9.5
2014-Mar-14 01:32N 51°19' W 127°52'9 9.4
2014-Mar-14 00:33N 51°10' W 127°50'10 9.9
2014-Mar-13 23:33N 51°03' W 127°39'10 9.8
2014-Mar-13 22:33N 50°56' W 127°28'10 9.9
2014-Mar-13 21:33N 50°51' W 127°15'9 9.4
2014-Mar-13 20:33N 50°46' W 127°02'10 9.1
2014-Mar-13 19:29N 50°40' W 126°50'8 8.7
2014-Mar-13 18:33N 50°34' W 126°41'59 9.1
2014-Mar-13 12:06N 50°07' W 125°20'12 7.6
2014-Mar-13 10:33N 49°57' W 125°09'8 8.1
2014-Mar-13 09:33N 49°52' W 125°01'9 8.4
2014-Mar-13 08:31N 49°45' W 124°51'8 8.4
2014-Mar-13 07:33N 49°40' W 124°42'8 8.5
2014-Mar-13 06:34N 49°34' W 124°33'8 8.4
2014-Mar-13 05:33N 49°28' W 124°23'8 8.3
2014-Mar-13 04:34N 49°24' W 124°12'8 7.9
2014-Mar-13 03:33N 49°20' W 124°02'8 7.8
2014-Mar-13 02:34N 49°16' W 123°51'7 7.3
2014-Mar-13 01:32N 49°12' W 123°42'7 7.4
2014-Mar-13 00:33N 49°07' W 123°33'8 7.7
2014-Mar-12 23:33N 49°02' W 123°25'8 8.3
2014-Mar-12 22:34N 48°56' W 123°16'8 8.1
2014-Mar-12 21:34N 48°51' W 123°06'8 8.2
2014-Mar-12 20:33N 48°49' W 122°54'9 8.7
2014-Mar-12 19:34N 48°43' W 122°44'8 8.2
2014-Mar-12 18:33N 48°35' W 122°45'8 8.3
2014-Mar-12 17:32N 48°26' W 122°44'9 8.6
2014-Mar-12 16:31N 48°18' W 122°47'10 8.7
2014-Mar-12 15:25N 48°09' W 122°42'910.2
2014-Mar-12 14:30N 48°00' W 122°36'9 9.7
2014-Mar-12 13:34N 47°53' W 122°28'9 8.5
2014-Mar-12 12:34N 47°44' W 122°26'5 4.6
2014-Mar-12 11:33N 47°40' W 122°24'1 0.7
2014-Mar-12 10:33N 47°40' W 122°23'0 0.0
2014-Mar-12 09:34N 47°40' W 122°23'0 0.0
2014-Mar-12 08:34N 47°40' W 122°23'0 0.0
2014-Mar-12 07:33N 47°40' W 122°23'0 0.0
2014-Mar-12 06:33N 47°40' W 122°23'0 0.0
2014-Mar-12 05:33N 47°40' W 122°23'0 0.0
2014-Mar-12 04:33N 47°40' W 122°23'0 0.0
2014-Mar-12 03:34N 47°40' W 122°23'0 0.0
2014-Mar-12 02:33N 47°40' W 122°23'0 0.0
2014-Mar-12 01:34N 47°40' W 122°23'0 0.0
2014-Mar-12 00:33N 47°40' W 122°23'0 0.0
2014-Mar-11 23:34N 47°40' W 122°23'0 0.0
2014-Mar-11 22:33N 47°40' W 122°23'0 0.0
2014-Mar-11 21:33N 47°40' W 122°23'0 0.0
2014-Mar-11 20:34N 47°40' W 122°23'0 0.0
2014-Mar-11 19:33N 47°40' W 122°23'0 0.0
2014-Mar-11 18:34N 47°40' W 122°23'0 0.0
2014-Mar-11 17:34N 47°40' W 122°23'0 0.0
2014-Mar-11 16:34N 47°40' W 122°23'0 0.0
2014-Mar-11 15:34N 47°40' W 122°23'0 0.0
2014-Mar-11 14:34N 47°40' W 122°23'0 0.0
2014-Mar-11 13:34N 47°40' W 122°23'0 0.0
2014-Mar-11 12:34N 47°40' W 122°23'0 0.0
2014-Mar-11 11:34N 47°40' W 122°23'0 0.0
2014-Mar-11 10:34N 47°40' W 122°23'0 0.0
2014-Mar-11 09:33N 47°40' W 122°23'0 0.0
2014-Mar-11 08:34N 47°40' W 122°23'0 0.0
2014-Mar-11 07:34N 47°40' W 122°23'0 0.0
2014-Mar-11 06:34N 47°40' W 122°23'0 0.0
2014-Mar-11 05:34N 47°40' W 122°23'0 0.0
2014-Mar-11 04:34N 47°40' W 122°23'0 0.0
2014-Mar-11 03:34N 47°40' W 122°23'0 0.0
2014-Mar-11 02:34N 47°40' W 122°23'0 0.0
2014-Mar-11 01:34N 47°40' W 122°23'0 0.0
2014-Mar-11 00:33N 47°40' W 122°23'0 0.0
2014-Mar-10 23:34N 47°40' W 122°23'0 0.0
2014-Mar-10 22:33N 47°40' W 122°23'0 0.0
2014-Mar-10 21:34N 47°40' W 122°23'0 0.0
2014-Mar-10 20:34N 47°40' W 122°23'0 0.0
2014-Mar-10 19:34N 47°40' W 122°23'0 0.0
2014-Mar-10 18:34N 47°40' W 122°23'0 0.0
2014-Mar-10 17:33N 47°40' W 122°23'1 0.6
2014-Mar-10 16:34N 47°40' W 122°23'  

Dump ship's entire track history